Time,TemperatureF,DewpointF,PressureIn,WindDirection,WindDirectionDegrees,WindSpeedMPH,WindSpeedGustMPH,Humidity,HourlyPrecipIn,Conditions,Clouds,dailyrainin,SoftwareType,DateUTC
2013-07-06 00:03:00,47.1,46.0,0.00,North,7,4.7,-999.0,96,0.00,,,-99.99,,2013-07-06 08:03:00,
2013-07-06 00:08:00,47.2,46.0,0.00,NNE,24,4.4,-999.0,95,0.00,,,-99.99,,2013-07-06 08:08:00,
2013-07-06 00:13:00,47.7,45.9,0.00,North,354,7.3,-999.0,93,0.00,,,-99.99,,2013-07-06 08:13:00,
2013-07-06 00:18:00,47.4,45.8,0.00,North,1,4.8,-999.0,94,0.00,,,-99.99,,2013-07-06 08:18:00,
2013-07-06 00:24:00,46.9,45.6,0.00,NW,325,5.9,-999.0,95,0.00,,,-99.99,,2013-07-06 08:24:00,
2013-07-06 00:29:00,46.8,45.8,0.00,NW,305,4.5,-999.0,96,0.00,,,-99.99,,2013-07-06 08:29:00,
2013-07-06 00:34:00,46.5,45.8,0.00,WSW,249,1.2,-999.0,97,0.00,,,-99.99,,2013-07-06 08:34:00,
2013-07-06 00:39:00,45.9,45.5,0.00,NW,325,6.8,-999.0,98,0.00,,,-99.99,,2013-07-06 08:39:00,
2013-07-06 00:44:00,45.6,45.3,0.00,NW,313,7.2,-999.0,98,0.00,,,-99.99,,2013-07-06 08:44:00,
2013-07-06 00:50:00,45.8,45.6,0.00,NNW,336,5.7,-999.0,99,0.00,,,-99.99,,2013-07-06 08:50:00,
2013-07-06 00:55:00,46.5,46.2,0.00,NNW,342,6.7,-999.0,99,0.00,,,-99.99,,2013-07-06 08:55:00,
2013-07-06 01:00:00,46.8,46.3,0.00,NNW,342,5.3,-999.0,98,0.00,,,-99.99,,2013-07-06 09:00:00,
2013-07-06 01:05:00,47.0,45.8,0.00,North,8,5.6,-999.0,95,0.00,,,-99.99,,2013-07-06 09:05:00,
2013-07-06 01:10:00,47.2,45.5,0.00,North,7,6.8,-999.0,93,0.00,,,-99.99,,2013-07-06 09:10:00,
2013-07-06 01:16:00,47.2,45.3,0.00,NNE,23,7.1,-999.0,92,0.00,,,-99.99,,2013-07-06 09:16:00,
2013-07-06 01:21:00,47.1,45.1,0.00,North,6,7.4,-999.0,92,0.00,,,-99.99,,2013-07-06 09:21:00,
2013-07-06 01:29:00,47.2,45.2,0.00,NNW,348,7.4,-999.0,92,0.00,,,-99.99,,2013-07-06 09:29:00,
2013-07-06 01:34:00,47.1,45.1,0.00,North,354,7.4,-999.0,93,0.00,,,-99.99,,2013-07-06 09:34:00,
2013-07-06 01:39:00,47.1,45.2,0.00,North,11,6.2,-999.0,93,0.00,,,-99.99,,2013-07-06 09:39:00,
2013-07-06 01:44:00,47.0,45.1,0.00,NNW,347,5.0,-999.0,93,0.00,,,-99.99,,2013-07-06 09:44:00,
2013-07-06 01:49:00,47.0,45.3,0.00,NNW,328,5.0,-999.0,93,0.00,,,-99.99,,2013-07-06 09:49:00,
2013-07-06 01:55:00,46.9,45.2,0.00,NNW,332,5.3,-999.0,94,0.00,,,-99.99,,2013-07-06 09:55:00,
2013-07-06 02:01:00,47.0,45.0,0.00,NNW,336,6.1,-999.0,92,0.00,,,-99.99,,2013-07-06 10:01:00,
2013-07-06 02:08:00,46.6,45.2,0.00,NW,322,4.2,-999.0,94,0.00,,,-99.99,,2013-07-06 10:08:00,
2013-07-06 02:13:00,46.8,45.4,0.00,NW,311,5.1,-999.0,95,0.00,,,-99.99,,2013-07-06 10:13:00,
2013-07-06 02:18:00,46.9,45.2,0.00,NW,323,5.5,-999.0,94,0.00,,,-99.99,,2013-07-06 10:18:00,
2013-07-06 02:23:00,46.9,45.3,0.00,NW,313,5.8,-999.0,93,0.00,,,-99.99,,2013-07-06 10:23:00,
2013-07-06 02:28:00,46.3,45.1,0.00,NW,316,3.8,-999.0,95,0.00,,,-99.99,,2013-07-06 10:28:00,
2013-07-06 02:34:00,45.9,45.0,0.00,NW,321,5.3,-999.0,96,0.00,,,-99.99,,2013-07-06 10:34:00,
2013-07-06 02:39:00,45.7,45.1,0.00,NW,311,5.5,-999.0,97,0.00,,,-99.99,,2013-07-06 10:39:00,
2013-07-06 02:44:00,45.5,45.1,0.00,NW,312,6.4,-999.0,98,0.00,,,-99.99,,2013-07-06 10:44:00,
2013-07-06 02:49:00,45.5,45.2,0.00,NW,311,4.8,-999.0,98,0.00,,,-99.99,,2013-07-06 10:49:00,
2013-07-06 02:54:00,45.8,45.6,0.00,NW,322,4.9,-999.0,99,0.00,,,-99.99,,2013-07-06 10:54:00,
2013-07-06 03:00:00,47.2,45.3,0.00,NNW,332,6.6,-999.0,93,0.00,,,-99.99,,2013-07-06 11:00:00,
2013-07-06 03:05:00,47.4,45.1,0.00,NNW,345,7.7,-999.0,91,0.00,,,-99.99,,2013-07-06 11:05:00,
2013-07-06 03:10:00,46.9,45.1,0.00,NNW,327,8.9,-999.0,93,0.00,,,-99.99,,2013-07-06 11:10:00,
2013-07-06 03:15:00,46.5,45.0,0.00,NW,325,9.5,-999.0,94,0.00,,,-99.99,,2013-07-06 11:15:00,
2013-07-06 03:20:00,46.6,45.1,0.00,NNW,329,12.0,-999.0,94,0.00,,,-99.99,,2013-07-06 11:20:00,
2013-07-06 03:26:00,46.5,45.1,0.00,NNW,327,10.5,-999.0,95,0.00,,,-99.99,,2013-07-06 11:26:00,
2013-07-06 03:31:00,46.3,45.1,0.00,NW,320,9.6,-999.0,95,0.00,,,-99.99,,2013-07-06 11:31:00,
2013-07-06 03:36:00,45.5,44.8,0.00,NW,314,9.9,-999.0,97,0.00,,,-99.99,,2013-07-06 11:36:00,
2013-07-06 03:41:00,45.5,45.1,0.00,NW,320,10.7,-999.0,98,0.00,,,-99.99,,2013-07-06 11:41:00,
2013-07-06 03:46:00,45.5,45.2,0.00,NW,326,11.4,-999.0,98,0.00,,,-99.99,,2013-07-06 11:46:00,
2013-07-06 03:52:00,45.8,45.6,0.00,NNW,327,12.4,-999.0,99,0.00,,,-99.99,,2013-07-06 11:52:00,
2013-07-06 03:57:00,45.5,45.2,0.00,NW,313,11.7,-999.0,99,0.00,,,-99.99,,2013-07-06 11:57:00,
2013-07-06 04:02:00,45.4,45.1,0.00,WNW,289,12.5,-999.0,99,0.00,,,-99.99,,2013-07-06 12:02:00,
2013-07-06 04:07:00,45.2,45.0,0.00,NW,320,14.6,-999.0,99,0.00,,,-99.99,,2013-07-06 12:07:00,
2013-07-06 04:12:00,45.3,45.1,0.00,WNW,294,14.3,-999.0,99,0.00,,,-99.99,,2013-07-06 12:12:00,
2013-07-06 04:18:00,44.9,44.7,0.00,WNW,299,16.0,-999.0,99,0.00,,,-99.99,,2013-07-06 12:18:00,
2013-07-06 04:23:00,44.9,44.7,0.00,NW,312,13.6,-999.0,99,0.00,,,-99.99,,2013-07-06 12:23:00,
2013-07-06 04:28:00,44.9,44.7,0.00,NW,319,14.1,-999.0,99,0.00,,,-99.99,,2013-07-06 12:28:00,
2013-07-06 04:33:00,45.1,44.9,0.00,NW,322,14.6,-999.0,99,0.00,,,-99.99,,2013-07-06 12:33:00,
2013-07-06 04:39:00,44.9,44.7,0.00,NNW,328,14.0,-999.0,99,0.00,,,-99.99,,2013-07-06 12:39:00,
2013-07-06 04:44:00,44.9,44.7,0.00,NNW,327,17.5,-999.0,99,0.00,,,-99.99,,2013-07-06 12:44:00,
2013-07-06 04:49:00,44.9,44.8,0.00,NNW,334,11.6,-999.0,99,0.00,,,-99.99,,2013-07-06 12:49:00,
2013-07-06 04:54:00,44.9,44.7,0.00,NW,318,15.7,-999.0,99,0.00,,,-99.99,,2013-07-06 12:54:00,
2013-07-06 04:59:00,45.1,44.9,0.00,NW,325,15.0,-999.0,99,0.00,,,-99.99,,2013-07-06 12:59:00,
2013-07-06 05:04:00,44.9,44.8,0.00,NNW,334,14.7,-999.0,99,0.00,,,-99.99,,2013-07-06 13:04:00,
2013-07-06 05:10:00,44.9,44.8,0.00,NNW,329,12.2,-999.0,99,0.00,,,-99.99,,2013-07-06 13:10:00,
2013-07-06 05:15:00,45.0,44.9,0.00,NW,322,12.0,-999.0,99,0.00,,,-99.99,,2013-07-06 13:15:00,
2013-07-06 05:20:00,45.1,44.9,0.00,NW,323,11.5,-999.0,99,0.00,,,-99.99,,2013-07-06 13:20:00,
2013-07-06 05:25:00,44.9,44.8,0.00,NNW,328,13.2,-999.0,99,0.00,,,-99.99,,2013-07-06 13:25:00,
2013-07-06 05:30:00,45.1,44.9,0.00,NW,322,11.3,-999.0,99,0.00,,,-99.99,,2013-07-06 13:30:00,
2013-07-06 05:36:00,45.1,45.0,0.00,NNW,331,11.0,-999.0,99,0.00,,,-99.99,,2013-07-06 13:36:00,
2013-07-06 05:41:00,45.5,45.4,0.00,NNW,333,13.8,-999.0,99,0.00,,,-99.99,,2013-07-06 13:41:00,
2013-07-06 05:46:00,45.6,45.5,0.00,NW,320,13.3,-999.0,99,0.00,,,-99.99,,2013-07-06 13:46:00,
2013-07-06 05:51:00,45.4,45.3,0.00,NW,324,14.4,-999.0,99,0.00,,,-99.99,,2013-07-06 13:51:00,
2013-07-06 05:56:00,45.5,45.4,0.00,NW,323,11.9,-999.0,99,0.00,,,-99.99,,2013-07-06 13:56:00,
2013-07-06 06:02:00,45.2,45.1,0.00,NNW,327,8.8,-999.0,99,0.00,,,-99.99,,2013-07-06 14:02:00,
2013-07-06 06:07:00,45.1,45.0,0.00,WNW,289,8.9,-999.0,99,0.00,,,-99.99,,2013-07-06 14:07:00,
2013-07-06 06:12:00,45.0,44.9,0.00,NW,315,5.3,-999.0,99,0.00,,,-99.99,,2013-07-06 14:12:00,
2013-07-06 06:17:00,45.1,45.0,0.00,NNW,331,8.4,-999.0,99,0.00,,,-99.99,,2013-07-06 14:17:00,
2013-07-06 06:22:00,45.1,45.0,0.00,NW,326,8.9,-999.0,99,0.00,,,-99.99,,2013-07-06 14:22:00,
2013-07-06 06:28:00,44.9,44.8,0.00,NW,311,9.4,-999.0,99,0.00,,,-99.99,,2013-07-06 14:28:00,
2013-07-06 06:33:00,44.8,44.7,0.00,NW,320,9.4,-999.0,99,0.00,,,-99.99,,2013-07-06 14:33:00,
2013-07-06 06:38:00,44.8,44.7,0.00,NW,316,9.6,-999.0,99,0.00,,,-99.99,,2013-07-06 14:38:00,
2013-07-06 06:43:00,44.8,44.7,0.00,NW,311,9.3,-999.0,99,0.00,,,-99.99,,2013-07-06 14:43:00,
2013-07-06 06:48:00,45.0,44.9,0.00,NW,323,10.6,-999.0,99,0.00,,,-99.99,,2013-07-06 14:48:00,
2013-07-06 06:54:00,45.0,44.9,0.00,NW,318,10.0,-999.0,99,0.00,,,-99.99,,2013-07-06 14:54:00,
2013-07-06 06:59:00,45.0,44.9,0.00,NW,324,10.3,-999.0,99,0.00,,,-99.99,,2013-07-06 14:59:00,
2013-07-06 07:04:00,45.1,45.0,0.00,NNW,327,10.5,-999.0,99,0.00,,,-99.99,,2013-07-06 15:04:00,
2013-07-06 07:09:00,45.0,44.9,0.00,NW,325,12.0,-999.0,99,0.00,,,-99.99,,2013-07-06 15:09:00,
2013-07-06 07:14:00,45.1,45.0,0.00,NW,309,12.6,-999.0,99,0.00,,,-99.99,,2013-07-06 15:14:00,
2013-07-06 07:20:00,45.1,45.1,0.00,NW,322,13.2,-999.0,99,0.00,,,-99.99,,2013-07-06 15:20:00,
2013-07-06 07:25:00,45.1,45.0,0.00,NNW,328,11.6,-999.0,99,0.00,,,-99.99,,2013-07-06 15:25:00,
2013-07-06 07:30:00,45.2,45.2,0.00,West,279,4.6,-999.0,99,0.00,,,-99.99,,2013-07-06 15:30:00,
2013-07-06 07:35:00,45.2,45.2,0.00,West,260,6.4,-999.0,99,0.00,,,-99.99,,2013-07-06 15:35:00,
2013-07-06 07:40:00,45.3,45.2,0.00,WNW,296,12.8,-999.0,99,0.00,,,-99.99,,2013-07-06 15:40:00,
2013-07-06 07:46:00,45.4,45.3,0.00,WNW,283,9.2,-999.0,99,0.00,,,-99.99,,2013-07-06 15:46:00,
2013-07-06 07:51:00,45.4,45.4,0.00,SW,233,2.8,-999.0,99,0.00,,,-99.99,,2013-07-06 15:51:00,
2013-07-06 07:56:00,45.4,45.3,0.00,NW,315,11.6,-999.0,99,0.00,,,-99.99,,2013-07-06 15:56:00,
2013-07-06 08:01:00,45.1,45.0,0.00,NW,315,14.4,-999.0,99,0.00,,,-99.99,,2013-07-06 16:01:00,
2013-07-06 08:07:00,45.3,45.2,0.00,NW,309,16.6,-999.0,99,0.00,,,-99.99,,2013-07-06 16:07:00,
2013-07-06 08:12:00,45.5,45.5,0.00,WNW,285,15.3,-999.0,99,0.00,,,-99.99,,2013-07-06 16:12:00,
2013-07-06 08:18:00,45.3,45.2,0.00,NW,306,15.2,-999.0,99,0.00,,,-99.99,,2013-07-06 16:18:00,
2013-07-06 08:26:00,45.6,45.5,0.00,West,272,9.8,-999.0,99,0.00,,,-99.99,,2013-07-06 16:26:00,
2013-07-06 08:33:00,45.7,45.6,0.00,NW,309,5.5,-999.0,99,0.00,,,-99.99,,2013-07-06 16:33:00,
2013-07-06 08:39:00,45.6,45.5,0.00,WNW,300,10.4,-999.0,99,0.00,,,-99.99,,2013-07-06 16:39:00,
2013-07-06 08:45:00,45.7,45.6,0.00,WNW,299,7.4,-999.0,99,0.00,,,-99.99,,2013-07-06 16:45:00,
2013-07-06 08:53:00,45.5,45.5,0.00,North,0,9.2,-999.0,99,0.00,,,-99.99,,2013-07-06 16:53:00,
2013-07-06 08:58:00,45.7,45.6,0.00,WSW,249,4.7,-999.0,99,0.00,,,-99.99,,2013-07-06 16:58:00,
2013-07-06 09:05:00,45.7,45.6,0.00,SW,232,1.4,-999.0,99,0.00,,,-99.99,,2013-07-06 17:05:00,
2013-07-06 09:12:00,45.9,45.8,0.00,ESE,117,0.8,-999.0,99,0.00,,,-99.99,,2013-07-06 17:12:00,
2013-07-06 09:17:00,46.1,46.0,0.00,West,281,0.8,-999.0,99,0.00,,,-99.99,,2013-07-06 17:17:00,
2013-07-06 09:23:00,46.0,45.9,0.00,SW,220,2.2,-999.0,99,0.00,,,-99.99,,2013-07-06 17:23:00,
2013-07-06 09:28:00,46.2,46.1,0.00,SE,138,3.2,-999.0,99,0.00,,,-99.99,,2013-07-06 17:28:00,
2013-07-06 09:33:00,46.0,46.0,0.00,SSE,164,2.9,-999.0,99,0.00,,,-99.99,,2013-07-06 17:33:00,
2013-07-06 09:38:00,46.1,46.0,0.00,SW,217,1.4,-999.0,99,0.00,,,-99.99,,2013-07-06 17:38:00,
2013-07-06 09:43:00,46.0,45.9,0.00,ESE,106,1.8,-999.0,99,0.00,,,-99.99,,2013-07-06 17:43:00,
2013-07-06 09:50:00,46.1,46.0,0.00,NNW,339,1.5,-999.0,99,0.00,,,-99.99,,2013-07-06 17:50:00,
2013-07-06 09:55:00,46.0,46.0,0.00,WSW,251,1.3,-999.0,99,0.00,,,-99.99,,2013-07-06 17:55:00,
2013-07-06 10:00:00,45.9,45.9,0.00,NE,47,3.6,-999.0,99,0.00,,,-99.99,,2013-07-06 18:00:00,
2013-07-06 10:08:00,46.0,46.0,0.00,WSW,256,4.2,-999.0,99,0.00,,,-99.99,,2013-07-06 18:08:00,
2013-07-06 10:15:00,46.0,45.9,0.00,SE,130,3.3,-999.0,99,0.00,,,-99.99,,2013-07-06 18:15:00,
2013-07-06 10:21:00,45.9,45.9,0.00,West,270,0.3,-999.0,99,0.00,,,-99.99,,2013-07-06 18:21:00,
2013-07-06 10:27:00,46.2,46.1,0.00,ESE,116,2.6,-999.0,99,0.00,,,-99.99,,2013-07-06 18:27:00,
2013-07-06 10:36:00,46.6,46.5,0.00,East,99,0.7,-999.0,99,0.00,,,-99.99,,2013-07-06 18:36:00,
2013-07-06 10:42:00,46.4,46.4,0.00,NNE,13,1.9,-999.0,99,0.00,,,-99.99,,2013-07-06 18:42:00,
2013-07-06 10:47:00,46.3,46.2,0.00,SE,139,0.6,-999.0,99,0.00,,,-99.99,,2013-07-06 18:47:00,
2013-07-06 10:54:00,46.6,46.5,0.00,SE,130,3.1,-999.0,99,0.00,,,-99.99,,2013-07-06 18:54:00,
2013-07-06 10:59:00,47.0,46.9,0.00,SE,137,3.4,-999.0,99,0.00,,,-99.99,,2013-07-06 18:59:00,
2013-07-06 11:06:00,47.1,47.0,0.00,WSW,240,3.8,-999.0,99,0.00,,,-99.99,,2013-07-06 19:06:00,
2013-07-06 11:11:00,47.1,47.1,0.00,NNW,329,0.6,-999.0,99,0.00,,,-99.99,,2013-07-06 19:11:00,
2013-07-06 11:20:00,46.7,46.6,0.00,WNW,283,1.5,-999.0,99,0.00,,,-99.99,,2013-07-06 19:20:00,
2013-07-06 11:26:00,46.9,46.8,0.00,South,182,1.8,-999.0,99,0.00,,,-99.99,,2013-07-06 19:26:00,
2013-07-06 11:31:00,47.2,47.2,0.00,SSE,162,0.6,-999.0,99,0.00,,,-99.99,,2013-07-06 19:31:00,
2013-07-06 11:42:00,47.2,47.2,0.00,SSE,150,5.2,-999.0,99,0.00,,,-99.99,,2013-07-06 19:42:00,
2013-07-06 11:47:00,47.0,46.9,0.00,West,268,3.6,-999.0,99,0.00,,,-99.99,,2013-07-06 19:47:00,
2013-07-06 11:52:00,46.8,46.8,0.00,East,94,3.5,-999.0,99,0.00,,,-99.99,,2013-07-06 19:52:00,
2013-07-06 12:00:00,46.8,46.7,0.00,SE,142,1.2,-999.0,99,0.00,,,-99.99,,2013-07-06 20:00:00,
2013-07-06 12:05:00,47.2,47.1,0.00,ESE,113,1.9,-999.0,99,0.00,,,-99.99,,2013-07-06 20:05:00,
2013-07-06 12:13:00,47.0,46.9,0.00,West,277,6.2,-999.0,99,0.00,,,-99.99,,2013-07-06 20:13:00,
2013-07-06 12:21:00,46.9,46.9,0.00,South,177,0.7,-999.0,99,0.00,,,-99.99,,2013-07-06 20:21:00,
2013-07-06 12:26:00,46.6,46.6,0.00,NW,309,1.0,-999.0,99,0.00,,,-99.99,,2013-07-06 20:26:00,
2013-07-06 12:31:00,46.4,46.4,0.00,North,0,2.1,-999.0,99,0.00,,,-99.99,,2013-07-06 20:31:00,
2013-07-06 12:38:00,46.3,46.3,0.00,South,185,6.5,-999.0,99,0.00,,,-99.99,,2013-07-06 20:38:00,
2013-07-06 12:47:00,46.3,46.2,0.00,WNW,287,3.6,-999.0,99,0.00,,,-99.99,,2013-07-06 20:47:00,
2013-07-06 12:52:00,46.2,46.1,0.00,NW,316,5.8,-999.0,99,0.00,,,-99.99,,2013-07-06 20:52:00,
2013-07-06 12:57:00,46.0,46.0,0.00,NW,305,16.8,-999.0,99,0.00,,,-99.99,,2013-07-06 20:57:00,
2013-07-06 13:03:00,46.2,46.1,0.00,NW,305,1.6,-999.0,99,0.00,,,-99.99,,2013-07-06 21:03:00,
2013-07-06 13:08:00,46.6,46.6,0.00,SSW,209,2.3,-999.0,99,0.00,,,-99.99,,2013-07-06 21:08:00,
2013-07-06 13:14:00,46.3,46.2,0.00,SSW,195,2.8,-999.0,99,0.00,,,-99.99,,2013-07-06 21:14:00,
2013-07-06 13:19:00,46.3,46.2,0.00,SSW,194,5.3,-999.0,99,0.00,,,-99.99,,2013-07-06 21:19:00,
2013-07-06 13:24:00,46.2,46.1,0.00,WSW,253,13.4,-999.0,99,0.00,,,-99.99,,2013-07-06 21:24:00,
2013-07-06 13:31:00,45.9,45.8,0.00,West,273,9.4,-999.0,99,0.00,,,-99.99,,2013-07-06 21:31:00,
2013-07-06 13:36:00,46.0,45.9,0.00,North,354,5.5,-999.0,99,0.00,,,-99.99,,2013-07-06 21:36:00,
2013-07-06 13:45:00,46.2,46.2,0.00,SE,133,3.5,-999.0,99,0.00,,,-99.99,,2013-07-06 21:45:00,
2013-07-06 13:53:00,46.2,46.1,0.00,NW,307,11.9,-999.0,99,0.00,,,-99.99,,2013-07-06 21:53:00,
2013-07-06 13:58:00,46.1,46.0,0.00,WSW,250,6.1,-999.0,99,0.00,,,-99.99,,2013-07-06 21:58:00,
2013-07-06 14:08:00,45.8,45.8,0.00,West,264,5.2,-999.0,99,0.00,,,-99.99,,2013-07-06 22:08:00,
2013-07-06 14:15:00,45.8,45.7,0.00,SSW,193,4.7,-999.0,99,0.00,,,-99.99,,2013-07-06 22:15:00,
2013-07-06 14:20:00,45.4,45.3,0.00,NNW,335,3.9,-999.0,99,0.00,,,-99.99,,2013-07-06 22:20:00,
2013-07-06 14:37:00,45.2,45.2,0.00,SW,233,1.2,-999.0,99,0.00,,,-99.99,,2013-07-06 22:37:00,
2013-07-06 14:47:00,45.2,45.2,0.00,WNW,297,8.7,-999.0,99,0.00,,,-99.99,,2013-07-06 22:47:00,
2013-07-06 14:53:00,45.1,45.1,0.00,West,275,8.7,-999.0,99,0.00,,,-99.99,,2013-07-06 22:53:00,
2013-07-06 15:00:00,45.1,45.1,0.00,ENE,65,2.5,-999.0,99,0.00,,,-99.99,,2013-07-06 23:00:00,
2013-07-06 15:07:00,45.2,45.1,0.00,SSE,165,3.7,-999.0,99,0.00,,,-99.99,,2013-07-06 23:07:00,
2013-07-06 15:12:00,45.5,45.4,0.00,SSW,203,4.1,-999.0,99,0.00,,,-99.99,,2013-07-06 23:12:00,
2013-07-06 15:17:00,45.2,45.2,0.00,West,270,9.1,-999.0,99,0.00,,,-99.99,,2013-07-06 23:17:00,
2013-07-06 15:24:00,45.2,45.2,0.00,ESE,116,5.1,-999.0,99,0.00,,,-99.99,,2013-07-06 23:24:00,
2013-07-06 15:29:00,45.1,45.1,0.00,ENE,75,2.1,-999.0,99,0.00,,,-99.99,,2013-07-06 23:29:00,
2013-07-06 15:35:00,45.0,44.9,0.00,SW,219,2.4,-999.0,99,0.00,,,-99.99,,2013-07-06 23:35:00,
2013-07-06 15:43:00,45.0,44.9,0.00,South,171,0.5,-999.0,99,0.00,,,-99.99,,2013-07-06 23:43:00,
2013-07-06 15:50:00,44.9,44.9,0.00,SW,222,0.9,-999.0,99,0.00,,,-99.99,,2013-07-06 23:50:00,
2013-07-06 15:56:00,44.8,44.7,0.00,NW,308,2.2,-999.0,99,0.00,,,-99.99,,2013-07-06 23:56:00,
2013-07-06 16:07:00,44.8,44.8,0.00,NW,323,0.8,-999.0,99,0.00,,,-99.99,,2013-07-07 00:07:00,
2013-07-06 16:13:00,44.8,44.8,0.00,NE,44,2.2,-999.0,99,0.00,,,-99.99,,2013-07-07 00:13:00,
2013-07-06 16:19:00,44.9,44.9,0.00,ENE,57,4.2,-999.0,99,0.01,,,-99.99,,2013-07-07 00:19:00,
2013-07-06 16:24:00,44.8,44.8,0.00,South,185,2.0,-999.0,99,0.01,,,-99.99,,2013-07-07 00:24:00,
2013-07-06 16:32:00,44.8,44.8,0.00,NE,54,0.4,-999.0,99,0.01,,,-99.99,,2013-07-07 00:32:00,
2013-07-06 16:39:00,44.7,44.6,0.00,WNW,296,1.4,-999.0,99,0.01,,,-99.99,,2013-07-07 00:39:00,
2013-07-06 16:44:00,44.5,44.4,0.00,ESE,122,1.3,-999.0,99,0.01,,,-99.99,,2013-07-07 00:44:00,
2013-07-06 16:49:00,44.5,44.5,0.00,SSE,157,1.4,-999.0,99,0.02,,,-99.99,,2013-07-07 00:49:00,
2013-07-06 16:56:00,44.3,44.3,0.00,ENE,59,0.8,-999.0,99,0.03,,,-99.99,,2013-07-07 00:56:00,
2013-07-06 17:02:00,44.3,44.2,0.00,WNW,295,6.1,-999.0,99,0.00,,,-99.99,,2013-07-07 01:02:00,
2013-07-06 17:08:00,44.4,44.4,0.00,SW,219,0.8,-999.0,99,0.02,,,-99.99,,2013-07-07 01:08:00,
2013-07-06 17:13:00,44.3,44.3,0.00,NNE,31,0.7,-999.0,99,0.04,,,-99.99,,2013-07-07 01:13:00,
2013-07-06 17:20:00,44.3,44.3,0.00,North,1,1.9,-999.0,99,0.07,,,-99.99,,2013-07-07 01:20:00,
2013-07-06 17:25:00,44.4,44.4,0.00,East,80,3.3,-999.0,99,0.08,,,-99.99,,2013-07-07 01:25:00,
2013-07-06 17:31:00,44.4,44.4,0.00,North,0,2.3,-999.0,99,0.10,,,-99.99,,2013-07-07 01:31:00,
2013-07-06 17:40:00,44.4,44.4,0.00,SE,137,0.6,-999.0,99,0.13,,,-99.99,,2013-07-07 01:40:00,
2013-07-06 17:46:00,44.4,44.3,0.00,NNW,341,6.9,-999.0,99,0.15,,,-99.99,,2013-07-07 01:46:00,
2013-07-06 17:51:00,44.4,44.3,0.00,NW,310,0.8,-999.0,99,0.16,,,-99.99,,2013-07-07 01:51:00,
2013-07-06 17:58:00,44.5,44.4,0.00,SSW,204,0.8,-999.0,99,0.18,,,-99.99,,2013-07-07 01:58:00,
2013-07-06 18:04:00,44.2,44.2,0.00,NNE,26,1.1,-999.0,99,0.00,,,-99.99,,2013-07-07 02:04:00,
2013-07-06 18:09:00,44.1,44.1,0.00,SSE,155,0.6,-999.0,99,0.02,,,-99.99,,2013-07-07 02:09:00,
2013-07-06 18:19:00,44.2,44.1,0.00,NW,324,0.3,-999.0,99,0.05,,,-99.99,,2013-07-07 02:19:00,
2013-07-06 18:24:00,44.0,44.0,0.00,NE,36,1.2,-999.0,99,0.06,,,-99.99,,2013-07-07 02:24:00,
2013-07-06 18:37:00,44.1,44.1,0.00,North,0,2.8,-999.0,99,0.10,,,-99.99,,2013-07-07 02:37:00,
2013-07-06 18:49:00,43.9,43.9,0.00,NNE,31,0.4,-999.0,99,0.12,,,-99.99,,2013-07-07 02:49:00,
2013-07-06 18:55:00,44.0,43.9,0.00,East,100,1.4,-999.0,99,0.13,,,-99.99,,2013-07-07 02:55:00,
2013-07-06 19:02:00,43.9,43.8,0.00,ESE,106,1.1,-999.0,99,0.00,,,-99.99,,2013-07-07 03:02:00,
2013-07-06 19:07:00,43.7,43.7,0.00,East,81,1.5,-999.0,100,0.02,,,-99.99,,2013-07-07 03:07:00,
2013-07-06 19:13:00,43.7,43.0,0.00,SE,141,1.6,-999.0,100,0.05,,,-99.99,,2013-07-07 03:13:00,
2013-07-06 19:18:00,43.7,43.6,0.00,West,260,0.2,-999.0,99,0.07,,,-99.99,,2013-07-07 03:18:00,
2013-07-06 19:23:00,43.6,43.6,0.00,SSE,150,1.8,-999.0,99,0.08,,,-99.99,,2013-07-07 03:23:00,
2013-07-06 19:28:00,43.4,43.3,0.00,SW,232,0.5,-999.0,99,0.10,,,-99.99,,2013-07-07 03:28:00,
2013-07-06 19:33:00,43.4,43.3,0.00,South,173,1.3,-999.0,99,0.11,,,-99.99,,2013-07-07 03:33:00,
2013-07-06 19:38:00,43.4,43.0,0.00,SSE,154,2.1,-999.0,100,0.12,,,-99.99,,2013-07-07 03:38:00,
2013-07-06 19:51:00,43.3,43.3,0.00,SSE,151,1.5,-999.0,99,0.14,,,-99.99,,2013-07-07 03:51:00,
2013-07-06 19:56:00,43.2,43.2,0.00,SSE,168,1.3,-999.0,99,0.15,,,-99.99,,2013-07-07 03:56:00,
2013-07-06 20:01:00,43.2,43.1,0.00,SE,137,1.7,-999.0,99,0.00,,,-99.99,,2013-07-07 04:01:00,
2013-07-06 20:03:00,43.2,43.2,0.00,North,6,1.8,-999.0,99,0.00,,,-99.99,,2013-07-07 04:03:00,
2013-07-06 20:05:00,43.1,43.1,0.00,SE,137,1.1,-999.0,99,0.00,,,-99.99,,2013-07-07 04:05:00,
2013-07-06 20:10:00,43.2,43.2,0.00,NE,46,0.1,-999.0,99,0.01,,,-99.99,,2013-07-07 04:10:00,
2013-07-06 20:14:00,43.5,43.5,0.00,East,82,1.2,-999.0,99,0.01,,,-99.99,,2013-07-07 04:14:00,
2013-07-06 20:19:00,43.3,43.3,0.00,South,176,1.8,-999.0,99,0.01,,,-99.99,,2013-07-07 04:19:00,
2013-07-06 20:24:00,43.3,43.3,0.00,ESE,102,3.8,-999.0,99,0.01,,,-99.99,,2013-07-07 04:24:00,
2013-07-06 20:29:00,43.3,43.2,0.00,East,100,0.4,-999.0,99,0.01,,,-99.99,,2013-07-07 04:29:00,
2013-07-06 20:34:00,43.4,43.3,0.00,NE,53,0.7,-999.0,100,0.01,,,-99.99,,2013-07-07 04:34:00,
2013-07-06 20:39:00,43.4,43.0,0.00,ESE,110,0.7,-999.0,100,0.01,,,-99.99,,2013-07-07 04:39:00,
2013-07-06 20:44:00,43.4,43.4,0.00,ESE,108,0.9,-999.0,99,0.02,,,-99.99,,2013-07-07 04:44:00,
2013-07-06 20:49:00,43.4,43.4,0.00,North,1,0.2,-999.0,99,0.02,,,-99.99,,2013-07-07 04:49:00,
2013-07-06 20:54:00,43.2,43.2,0.00,SSW,206,1.5,-999.0,99,0.03,,,-99.99,,2013-07-07 04:54:00,
2013-07-06 20:59:00,43.4,43.3,0.00,SSE,161,0.2,-999.0,99,0.00,,,-99.99,,2013-07-07 04:59:00,
2013-07-06 21:04:00,43.4,43.4,0.00,SSE,152,0.1,-999.0,99,0.04,,,-99.99,,2013-07-07 05:04:00,
2013-07-06 21:09:00,43.4,43.4,0.00,ENE,74,1.8,-999.0,99,0.06,,,-99.99,,2013-07-07 05:09:00,
2013-07-06 21:14:00,43.4,43.3,0.00,SSE,147,0.3,-999.0,99,0.08,,,-99.99,,2013-07-07 05:14:00,
2013-07-06 21:19:00,43.4,43.0,0.00,SW,235,1.4,-999.0,100,0.09,,,-99.99,,2013-07-07 05:19:00,
2013-07-06 21:24:00,43.5,43.4,0.00,SSE,147,0.4,-999.0,99,0.10,,,-99.99,,2013-07-07 05:24:00,
2013-07-06 21:29:00,43.5,43.5,0.00,NW,306,1.1,-999.0,99,0.10,,,-99.99,,2013-07-07 05:29:00,
2013-07-06 21:34:00,43.4,43.4,0.00,West,269,0.8,-999.0,99,0.11,,,-99.99,,2013-07-07 05:34:00,
2013-07-06 21:39:00,43.4,43.4,0.00,NE,47,1.3,-999.0,99,0.11,,,-99.99,,2013-07-07 05:39:00,
2013-07-06 21:44:00,43.2,43.0,0.00,WSW,240,0.7,-999.0,100,0.12,,,-99.99,,2013-07-07 05:44:00,
2013-07-06 21:49:00,43.3,43.3,0.00,East,83,0.0,-999.0,99,0.13,,,-99.99,,2013-07-07 05:49:00,
2013-07-06 21:54:00,43.4,43.3,0.00,SSW,201,0.3,-999.0,99,0.15,,,-99.99,,2013-07-07 05:54:00,
2013-07-06 21:59:00,43.2,43.2,0.00,East,100,0.7,-999.0,99,0.00,,,-99.99,,2013-07-07 05:59:00,
2013-07-06 22:04:00,43.3,43.3,0.00,NE,44,1.3,-999.0,100,0.01,,,-99.99,,2013-07-07 06:04:00,
2013-07-06 22:09:00,43.3,43.3,0.00,WNW,285,0.6,-999.0,99,0.01,,,-99.99,,2013-07-07 06:09:00,
2013-07-06 22:14:00,43.3,43.0,0.00,West,280,3.9,-999.0,100,0.01,,,-99.99,,2013-07-07 06:14:00,
2013-07-06 22:19:00,43.2,43.2,0.00,South,183,0.7,-999.0,99,0.02,,,-99.99,,2013-07-07 06:19:00,
2013-07-06 22:24:00,43.2,43.1,0.00,SW,223,0.1,-999.0,99,0.02,,,-99.99,,2013-07-07 06:24:00,
2013-07-06 22:29:00,43.2,43.2,0.00,North,0,3.5,-999.0,100,0.03,,,-99.99,,2013-07-07 06:29:00,
2013-07-06 22:34:00,43.0,43.0,0.00,NW,322,5.1,-999.0,99,0.08,,,-99.99,,2013-07-07 06:34:00,
2013-07-06 22:39:00,43.1,43.1,0.00,NW,322,5.5,-999.0,99,0.12,,,-99.99,,2013-07-07 06:39:00,
2013-07-06 22:44:00,43.1,43.0,0.00,NW,318,6.1,-999.0,99,0.17,,,-99.99,,2013-07-07 06:44:00,
2013-07-06 22:49:00,43.1,43.0,0.00,NW,321,7.9,-999.0,99,0.17,,,-99.99,,2013-07-07 06:49:00,
2013-07-06 22:54:00,43.1,43.0,0.00,NW,313,7.6,-999.0,100,0.19,,,-99.99,,2013-07-07 06:54:00,
2013-07-06 22:59:00,43.0,43.0,0.00,NW,308,7.3,-999.0,99,0.00,,,-99.99,,2013-07-07 06:59:00,
2013-07-06 23:04:00,42.9,42.8,0.00,NNW,327,6.8,-999.0,99,0.02,,,-99.99,,2013-07-07 07:04:00,
2013-07-06 23:09:00,43.0,42.9,0.00,NNW,343,7.3,-999.0,99,0.05,,,-99.99,,2013-07-07 07:09:00,
2013-07-06 23:14:00,43.0,42.9,0.00,NNW,346,6.6,-999.0,99,0.06,,,-99.99,,2013-07-07 07:14:00,
2013-07-06 23:19:00,42.8,42.8,0.00,NNW,341,7.0,-999.0,99,0.07,,,-99.99,,2013-07-07 07:19:00,
2013-07-06 23:24:00,42.8,42.8,0.00,NNW,339,6.9,-999.0,99,0.07,,,-99.99,,2013-07-07 07:24:00,
2013-07-06 23:29:00,43.0,42.9,0.00,NNW,342,6.8,-999.0,99,0.07,,,-99.99,,2013-07-07 07:29:00,
2013-07-06 23:34:00,42.9,42.0,0.00,NNW,327,4.5,-999.0,100,0.07,,,-99.99,,2013-07-07 07:34:00,
2013-07-06 23:39:00,42.9,42.8,0.00,NNW,333,4.6,-999.0,99,0.07,,,-99.99,,2013-07-07 07:39:00,
2013-07-06 23:44:00,43.0,42.9,0.00,NNW,332,5.7,-999.0,99,0.07,,,-99.99,,2013-07-07 07:44:00,
2013-07-06 23:49:00,42.8,42.0,0.00,NNW,329,5.8,-999.0,100,0.07,,,-99.99,,2013-07-07 07:49:00,
2013-07-06 23:54:00,42.8,42.0,0.00,NNW,332,6.1,-999.0,100,0.07,,,-99.99,,2013-07-07 07:54:00,
2013-07-06 23:59:00,43.0,42.0,0.00,NNW,335,5.1,-999.0,100,0.00,,,-99.99,,2013-07-07 07:59:00,